sensor_id;sensor_type;location;lat;lon;timestamp;temperature;humidity
6146;DHT22;3104;50.348;7.620;2023-11-21T00:00:05;8.90;99.90
6146;DHT22;3104;50.348;7.620;2023-11-21T00:02:36;9.00;99.90
6146;DHT22;3104;50.348;7.620;2023-11-21T00:05:04;9.00;99.90
6146;DHT22;3104;50.348;7.620;2023-11-21T00:07:30;9.10;99.90
6146;DHT22;3104;50.348;7.620;2023-11-21T00:09:55;9.00;99.90
6146;DHT22;3104;50.348;7.620;2023-11-21T00:12:21;9.00;99.90
6146;DHT22;3104;50.348;7.620;2023-11-21T00:14:47;9.10;99.90
6146;DHT22;3104;50.348;7.620;2023-11-21T00:17:12;9.10;99.90
6146;DHT22;3104;50.348;7.620;2023-11-21T00:19:38;9.10;99.90
6146;DHT22;3104;50.348;7.620;2023-11-21T00:22:04;9.10;99.90
6146;DHT22;3104;50.348;7.620;2023-11-21T00:24:29;9.10;99.90
6146;DHT22;3104;50.348;7.620;2023-11-21T00:26:55;9.10;99.90
6146;DHT22;3104;50.348;7.620;2023-11-21T00:29:20;9.10;99.90
6146;DHT22;3104;50.348;7.620;2023-11-21T00:31:46;9.00;99.90
6146;DHT22;3104;50.348;7.620;2023-11-21T00:34:12;9.00;99.90
6146;DHT22;3104;50.348;7.620;2023-11-21T00:36:37;9.00;99.90
6146;DHT22;3104;50.348;7.620;2023-11-21T00:39:03;9.10;99.90
6146;DHT22;3104;50.348;7.620;2023-11-21T00:41:31;9.10;99.90
6146;DHT22;3104;50.348;7.620;2023-11-21T00:43:57;9.10;99.90
6146;DHT22;3104;50.348;7.620;2023-11-21T00:46:23;9.20;99.90
6146;DHT22;3104;50.348;7.620;2023-11-21T00:48:49;9.60;99.90
6146;DHT22;3104;50.348;7.620;2023-11-21T00:51:15;9.40;99.90
6146;DHT22;3104;50.348;7.620;2023-11-21T00:53:40;9.30;99.90
6146;DHT22;3104;50.348;7.620;2023-11-21T00:56:06;9.30;99.90
6146;DHT22;3104;50.348;7.620;2023-11-21T00:58:34;9.30;99.90
6146;DHT22;3104;50.348;7.620;2023-11-21T01:00:59;9.30;99.90
6146;DHT22;3104;50.348;7.620;2023-11-21T01:03:25;9.30;99.90
6146;DHT22;3104;50.348;7.620;2023-11-21T01:05:50;9.20;99.90
6146;DHT22;3104;50.348;7.620;2023-11-21T01:08:16;9.20;99.90
6146;DHT22;3104;50.348;7.620;2023-11-21T01:10:41;9.30;99.90
6146;DHT22;3104;50.348;7.620;2023-11-21T01:13:07;9.20;99.90
6146;DHT22;3104;50.348;7.620;2023-11-21T01:15:33;9.30;99.90
6146;DHT22;3104;50.348;7.620;2023-11-21T01:17:59;9.20;99.90
6146;DHT22;3104;50.348;7.620;2023-11-21T01:20:24;9.20;99.90
6146;DHT22;3104;50.348;7.620;2023-11-21T01:22:50;9.30;99.90
6146;DHT22;3104;50.348;7.620;2023-11-21T01:25:16;9.20;99.90
6146;DHT22;3104;50.348;7.620;2023-11-21T01:27:42;9.20;99.90
6146;DHT22;3104;50.348;7.620;2023-11-21T01:30:09;9.10;99.90
6146;DHT22;3104;50.348;7.620;2023-11-21T01:32:36;9.10;99.90
6146;DHT22;3104;50.348;7.620;2023-11-21T01:35:03;9.20;99.90
6146;DHT22;3104;50.348;7.620;2023-11-21T01:37:30;9.10;99.90
6146;DHT22;3104;50.348;7.620;2023-11-21T01:39:56;9.00;99.90
6146;DHT22;3104;50.348;7.620;2023-11-21T01:42:22;9.00;99.90
6146;DHT22;3104;50.348;7.620;2023-11-21T01:44:47;8.90;99.90
6146;DHT22;3104;50.348;7.620;2023-11-21T01:47:14;8.90;99.90
6146;DHT22;3104;50.348;7.620;2023-11-21T01:49:40;8.90;99.90
6146;DHT22;3104;50.348;7.620;2023-11-21T01:52:06;8.90;99.90
6146;DHT22;3104;50.348;7.620;2023-11-21T01:54:32;8.90;99.90
6146;DHT22;3104;50.348;7.620;2023-11-21T01:56:59;9.00;99.90
6146;DHT22;3104;50.348;7.620;2023-11-21T01:59:36;9.00;99.90
6146;DHT22;3104;50.348;7.620;2023-11-21T02:02:06;9.00;99.90
6146;DHT22;3104;50.348;7.620;2023-11-21T02:04:35;9.00;99.90
6146;DHT22;3104;50.348;7.620;2023-11-21T02:07:05;9.10;99.90
6146;DHT22;3104;50.348;7.620;2023-11-21T02:09:33;9.00;99.90
6146;DHT22;3104;50.348;7.620;2023-11-21T02:12:00;9.10;99.90
6146;DHT22;3104;50.348;7.620;2023-11-21T02:14:29;9.20;99.90
6146;DHT22;3104;50.348;7.620;2023-11-21T02:16:56;9.10;99.90
6146;DHT22;3104;50.348;7.620;2023-11-21T02:19:24;9.20;99.90
6146;DHT22;3104;50.348;7.620;2023-11-21T02:21:56;9.10;99.90
6146;DHT22;3104;50.348;7.620;2023-11-21T02:24:28;9.10;99.90
6146;DHT22;3104;50.348;7.620;2023-11-21T02:26:54;9.10;99.90
6146;DHT22;3104;50.348;7.620;2023-11-21T02:29:20;9.00;99.90
6146;DHT22;3104;50.348;7.620;2023-11-21T02:31:53;9.00;99.90
6146;DHT22;3104;50.348;7.620;2023-11-21T02:34:20;9.00;99.90
6146;DHT22;3104;50.348;7.620;2023-11-21T02:36:47;9.00;99.90
6146;DHT22;3104;50.348;7.620;2023-11-21T02:39:15;8.90;99.90
6146;DHT22;3104;50.348;7.620;2023-11-21T02:41:40;8.90;99.90
6146;DHT22;3104;50.348;7.620;2023-11-21T02:44:06;9.00;99.90
6146;DHT22;3104;50.348;7.620;2023-11-21T02:46:33;9.00;99.90
6146;DHT22;3104;50.348;7.620;2023-11-21T02:49:02;8.90;99.90
6146;DHT22;3104;50.348;7.620;2023-11-21T02:51:29;8.90;99.90
6146;DHT22;3104;50.348;7.620;2023-11-21T02:53:55;9.00;99.90
6146;DHT22;3104;50.348;7.620;2023-11-21T02:56:25;9.00;99.90
6146;DHT22;3104;50.348;7.620;2023-11-21T02:58:52;8.90;99.90
6146;DHT22;3104;50.348;7.620;2023-11-21T03:01:17;8.80;99.90
6146;DHT22;3104;50.348;7.620;2023-11-21T03:03:43;8.80;99.90
6146;DHT22;3104;50.348;7.620;2023-11-21T03:06:09;8.80;99.90
6146;DHT22;3104;50.348;7.620;2023-11-21T03:08:34;8.80;99.90
6146;DHT22;3104;50.348;7.620;2023-11-21T03:11:01;8.80;99.90
6146;DHT22;3104;50.348;7.620;2023-11-21T03:13:28;8.80;99.90
6146;DHT22;3104;50.348;7.620;2023-11-21T03:15:53;8.80;99.90
6146;DHT22;3104;50.348;7.620;2023-11-21T03:18:19;8.70;99.90
6146;DHT22;3104;50.348;7.620;2023-11-21T03:20:47;8.70;99.90
6146;DHT22;3104;50.348;7.620;2023-11-21T03:23:13;8.60;99.90
6146;DHT22;3104;50.348;7.620;2023-11-21T03:25:38;8.50;99.90
6146;DHT22;3104;50.348;7.620;2023-11-21T03:28:04;8.50;99.90
6146;DHT22;3104;50.348;7.620;2023-11-21T03:30:30;8.50;99.90
6146;DHT22;3104;50.348;7.620;2023-11-21T03:32:55;8.40;99.90
6146;DHT22;3104;50.348;7.620;2023-11-21T03:35:22;8.40;99.90
6146;DHT22;3104;50.348;7.620;2023-11-21T03:37:47;8.50;99.90
6146;DHT22;3104;50.348;7.620;2023-11-21T03:40:13;8.50;99.90
6146;DHT22;3104;50.348;7.620;2023-11-21T03:42:39;8.50;99.90
6146;DHT22;3104;50.348;7.620;2023-11-21T03:45:05;8.50;99.90
6146;DHT22;3104;50.348;7.620;2023-11-21T03:47:31;8.50;99.90
6146;DHT22;3104;50.348;7.620;2023-11-21T03:49:57;8.50;99.90
6146;DHT22;3104;50.348;7.620;2023-11-21T03:52:22;8.50;99.90
6146;DHT22;3104;50.348;7.620;2023-11-21T03:54:48;8.50;99.90
6146;DHT22;3104;50.348;7.620;2023-11-21T03:57:13;8.40;99.90
6146;DHT22;3104;50.348;7.620;2023-11-21T03:59:43;8.30;99.90
6146;DHT22;3104;50.348;7.620;2023-11-21T04:02:09;8.40;99.90
6146;DHT22;3104;50.348;7.620;2023-11-21T04:04:35;8.40;99.90
6146;DHT22;3104;50.348;7.620;2023-11-21T04:07:01;8.30;99.90
6146;DHT22;3104;50.348;7.620;2023-11-21T04:09:27;8.40;99.90
6146;DHT22;3104;50.348;7.620;2023-11-21T04:11:53;8.30;99.90
6146;DHT22;3104;50.348;7.620;2023-11-21T04:14:19;8.30;99.90
6146;DHT22;3104;50.348;7.620;2023-11-21T04:16:45;8.40;99.90
6146;DHT22;3104;50.348;7.620;2023-11-21T04:19:11;8.40;99.90
6146;DHT22;3104;50.348;7.620;2023-11-21T04:21:37;8.40;99.90
6146;DHT22;3104;50.348;7.620;2023-11-21T04:24:02;8.30;99.90
6146;DHT22;3104;50.348;7.620;2023-11-21T04:26:28;8.30;99.90
6146;DHT22;3104;50.348;7.620;2023-11-21T04:28:54;8.40;99.90
6146;DHT22;3104;50.348;7.620;2023-11-21T04:31:19;8.40;99.90
6146;DHT22;3104;50.348;7.620;2023-11-21T04:33:45;8.40;99.90
6146;DHT22;3104;50.348;7.620;2023-11-21T04:36:10;8.50;99.90
6146;DHT22;3104;50.348;7.620;2023-11-21T04:38:36;8.40;99.90
6146;DHT22;3104;50.348;7.620;2023-11-21T04:41:02;8.50;99.90
6146;DHT22;3104;50.348;7.620;2023-11-21T04:43:27;8.40;99.90
6146;DHT22;3104;50.348;7.620;2023-11-21T04:45:54;8.50;99.90
6146;DHT22;3104;50.348;7.620;2023-11-21T04:48:20;8.50;99.90
6146;DHT22;3104;50.348;7.620;2023-11-21T04:50:45;8.60;99.90
6146;DHT22;3104;50.348;7.620;2023-11-21T04:53:11;8.60;99.90
6146;DHT22;3104;50.348;7.620;2023-11-21T04:55:40;8.60;99.90
6146;DHT22;3104;50.348;7.620;2023-11-21T04:58:05;8.70;99.90
6146;DHT22;3104;50.348;7.620;2023-11-21T05:00:31;8.60;99.90
6146;DHT22;3104;50.348;7.620;2023-11-21T05:02:57;8.50;99.90
6146;DHT22;3104;50.348;7.620;2023-11-21T05:05:22;8.40;99.90
6146;DHT22;3104;50.348;7.620;2023-11-21T05:07:49;8.70;99.90
6146;DHT22;3104;50.348;7.620;2023-11-21T05:10:14;8.60;99.90
6146;DHT22;3104;50.348;7.620;2023-11-21T05:12:41;8.60;99.90
6146;DHT22;3104;50.348;7.620;2023-11-21T05:15:08;8.60;99.90
6146;DHT22;3104;50.348;7.620;2023-11-21T05:17:37;8.50;99.90
6146;DHT22;3104;50.348;7.620;2023-11-21T05:20:05;8.60;99.90
6146;DHT22;3104;50.348;7.620;2023-11-21T05:22:34;8.50;99.90
6146;DHT22;3104;50.348;7.620;2023-11-21T05:25:00;8.60;99.90
6146;DHT22;3104;50.348;7.620;2023-11-21T05:27:26;8.60;99.90
6146;DHT22;3104;50.348;7.620;2023-11-21T05:29:53;8.50;99.90
6146;DHT22;3104;50.348;7.620;2023-11-21T05:32:19;8.50;99.90
6146;DHT22;3104;50.348;7.620;2023-11-21T05:34:45;8.60;99.90
6146;DHT22;3104;50.348;7.620;2023-11-21T05:37:10;8.60;99.90
6146;DHT22;3104;50.348;7.620;2023-11-21T05:39:36;8.60;99.90
6146;DHT22;3104;50.348;7.620;2023-11-21T05:42:01;8.60;99.90
6146;DHT22;3104;50.348;7.620;2023-11-21T05:44:27;8.60;99.90
6146;DHT22;3104;50.348;7.620;2023-11-21T05:46:53;8.60;99.90
6146;DHT22;3104;50.348;7.620;2023-11-21T05:49:18;8.50;99.90
6146;DHT22;3104;50.348;7.620;2023-11-21T05:51:47;8.40;99.90
6146;DHT22;3104;50.348;7.620;2023-11-21T05:54:13;8.40;99.90
6146;DHT22;3104;50.348;7.620;2023-11-21T05:56:38;8.40;99.90
6146;DHT22;3104;50.348;7.620;2023-11-21T05:59:04;8.50;99.90
6146;DHT22;3104;50.348;7.620;2023-11-21T06:01:29;8.40;99.90
6146;DHT22;3104;50.348;7.620;2023-11-21T06:03:55;8.50;99.90
6146;DHT22;3104;50.348;7.620;2023-11-21T06:06:21;8.50;99.90
6146;DHT22;3104;50.348;7.620;2023-11-21T06:08:51;8.70;99.90
6146;DHT22;3104;50.348;7.620;2023-11-21T06:11:16;8.70;99.90
6146;DHT22;3104;50.348;7.620;2023-11-21T06:13:42;8.60;99.90
6146;DHT22;3104;50.348;7.620;2023-11-21T06:16:08;8.60;99.90
6146;DHT22;3104;50.348;7.620;2023-11-21T06:18:33;8.50;99.90
6146;DHT22;3104;50.348;7.620;2023-11-21T06:21:00;8.50;99.90
6146;DHT22;3104;50.348;7.620;2023-11-21T06:23:26;8.50;99.90
6146;DHT22;3104;50.348;7.620;2023-11-21T06:25:51;8.50;99.90
6146;DHT22;3104;50.348;7.620;2023-11-21T06:28:18;8.50;99.90
6146;DHT22;3104;50.348;7.620;2023-11-21T06:30:44;8.60;99.90
6146;DHT22;3104;50.348;7.620;2023-11-21T06:33:10;8.60;99.90
6146;DHT22;3104;50.348;7.620;2023-11-21T06:35:36;8.60;99.90
6146;DHT22;3104;50.348;7.620;2023-11-21T06:38:02;8.60;99.90
6146;DHT22;3104;50.348;7.620;2023-11-21T06:40:28;8.80;99.90
6146;DHT22;3104;50.348;7.620;2023-11-21T06:42:53;8.80;99.90
6146;DHT22;3104;50.348;7.620;2023-11-21T06:45:19;8.90;99.90
6146;DHT22;3104;50.348;7.620;2023-11-21T06:47:45;8.80;99.90
6146;DHT22;3104;50.348;7.620;2023-11-21T06:50:11;8.80;99.90
6146;DHT22;3104;50.348;7.620;2023-11-21T06:52:37;8.80;99.90
6146;DHT22;3104;50.348;7.620;2023-11-21T06:55:03;8.80;99.90
6146;DHT22;3104;50.348;7.620;2023-11-21T06:57:28;8.90;99.90
6146;DHT22;3104;50.348;7.620;2023-11-21T06:59:54;8.80;99.90
6146;DHT22;3104;50.348;7.620;2023-11-21T07:02:20;8.80;99.90
6146;DHT22;3104;50.348;7.620;2023-11-21T07:04:46;8.70;99.90
6146;DHT22;3104;50.348;7.620;2023-11-21T07:07:12;8.70;99.90
6146;DHT22;3104;50.348;7.620;2023-11-21T07:09:37;8.70;99.90
6146;DHT22;3104;50.348;7.620;2023-11-21T07:12:03;8.70;99.90
6146;DHT22;3104;50.348;7.620;2023-11-21T07:14:31;8.70;99.90
6146;DHT22;3104;50.348;7.620;2023-11-21T07:16:57;8.90;99.90
6146;DHT22;3104;50.348;7.620;2023-11-21T07:19:23;8.90;99.90
6146;DHT22;3104;50.348;7.620;2023-11-21T07:21:49;8.80;99.90
6146;DHT22;3104;50.348;7.620;2023-11-21T07:24:17;8.80;99.90
6146;DHT22;3104;50.348;7.620;2023-11-21T07:26:43;8.80;99.90
6146;DHT22;3104;50.348;7.620;2023-11-21T07:29:09;8.80;99.90
6146;DHT22;3104;50.348;7.620;2023-11-21T07:31:34;8.80;99.90
6146;DHT22;3104;50.348;7.620;2023-11-21T07:34:00;8.80;99.90
6146;DHT22;3104;50.348;7.620;2023-11-21T07:36:26;8.80;99.90
6146;DHT22;3104;50.348;7.620;2023-11-21T07:38:52;8.80;99.90
6146;DHT22;3104;50.348;7.620;2023-11-21T07:41:18;8.80;99.90
6146;DHT22;3104;50.348;7.620;2023-11-21T07:43:45;8.90;99.90
6146;DHT22;3104;50.348;7.620;2023-11-21T07:46:11;8.90;99.90
6146;DHT22;3104;50.348;7.620;2023-11-21T07:48:41;9.00;99.90
6146;DHT22;3104;50.348;7.620;2023-11-21T07:51:08;9.00;99.90
6146;DHT22;3104;50.348;7.620;2023-11-21T07:53:34;8.90;99.90
6146;DHT22;3104;50.348;7.620;2023-11-21T07:56:06;9.00;99.90
6146;DHT22;3104;50.348;7.620;2023-11-21T07:58:36;9.00;99.90
6146;DHT22;3104;50.348;7.620;2023-11-21T08:01:03;8.90;99.90
6146;DHT22;3104;50.348;7.620;2023-11-21T08:03:29;8.90;99.90
6146;DHT22;3104;50.348;7.620;2023-11-21T08:05:58;8.90;99.90
6146;DHT22;3104;50.348;7.620;2023-11-21T08:08:24;8.90;99.90
6146;DHT22;3104;50.348;7.620;2023-11-21T08:10:50;9.00;99.90
6146;DHT22;3104;50.348;7.620;2023-11-21T08:13:30;8.90;99.90
6146;DHT22;3104;50.348;7.620;2023-11-21T08:15:59;9.00;99.90
6146;DHT22;3104;50.348;7.620;2023-11-21T08:18:28;9.10;99.90
6146;DHT22;3104;50.348;7.620;2023-11-21T08:20:55;9.20;99.90
6146;DHT22;3104;50.348;7.620;2023-11-21T08:23:21;9.10;99.90
6146;DHT22;3104;50.348;7.620;2023-11-21T08:25:50;9.20;99.90
6146;DHT22;3104;50.348;7.620;2023-11-21T08:28:16;9.20;99.90
6146;DHT22;3104;50.348;7.620;2023-11-21T08:30:42;9.20;99.90
6146;DHT22;3104;50.348;7.620;2023-11-21T08:33:07;9.20;99.90
6146;DHT22;3104;50.348;7.620;2023-11-21T08:35:34;9.30;99.90
6146;DHT22;3104;50.348;7.620;2023-11-21T08:37:59;9.30;99.90
6146;DHT22;3104;50.348;7.620;2023-11-21T08:40:25;9.20;99.90
6146;DHT22;3104;50.348;7.620;2023-11-21T08:42:51;9.20;99.90
6146;DHT22;3104;50.348;7.620;2023-11-21T08:45:21;9.20;99.90
6146;DHT22;3104;50.348;7.620;2023-11-21T08:47:47;9.30;99.90
6146;DHT22;3104;50.348;7.620;2023-11-21T08:50:14;9.40;99.90
6146;DHT22;3104;50.348;7.620;2023-11-21T08:52:40;9.20;99.90
6146;DHT22;3104;50.348;7.620;2023-11-21T08:55:07;9.20;99.90
6146;DHT22;3104;50.348;7.620;2023-11-21T08:57:38;9.10;99.90
6146;DHT22;3104;50.348;7.620;2023-11-21T09:00:04;9.20;99.90
6146;DHT22;3104;50.348;7.620;2023-11-21T09:02:33;9.30;99.90
6146;DHT22;3104;50.348;7.620;2023-11-21T09:05:06;9.30;99.90
6146;DHT22;3104;50.348;7.620;2023-11-21T09:07:31;9.30;99.90
6146;DHT22;3104;50.348;7.620;2023-11-21T09:09:57;9.40;99.90
6146;DHT22;3104;50.348;7.620;2023-11-21T09:12:23;9.30;99.90
6146;DHT22;3104;50.348;7.620;2023-11-21T09:14:50;9.40;99.90
6146;DHT22;3104;50.348;7.620;2023-11-21T09:17:16;9.50;99.90
6146;DHT22;3104;50.348;7.620;2023-11-21T09:19:42;9.50;99.90
6146;DHT22;3104;50.348;7.620;2023-11-21T09:22:10;9.60;99.90
6146;DHT22;3104;50.348;7.620;2023-11-21T09:24:36;9.50;99.90
6146;DHT22;3104;50.348;7.620;2023-11-21T09:27:03;9.60;99.90
6146;DHT22;3104;50.348;7.620;2023-11-21T09:29:29;9.60;99.90
6146;DHT22;3104;50.348;7.620;2023-11-21T09:31:55;9.70;99.90
6146;DHT22;3104;50.348;7.620;2023-11-21T09:34:22;9.60;99.90
6146;DHT22;3104;50.348;7.620;2023-11-21T09:36:48;9.60;99.90
6146;DHT22;3104;50.348;7.620;2023-11-21T09:39:14;9.60;99.90
6146;DHT22;3104;50.348;7.620;2023-11-21T09:41:59;9.70;99.90
6146;DHT22;3104;50.348;7.620;2023-11-21T09:44:35;9.50;99.90
6146;DHT22;3104;50.348;7.620;2023-11-21T09:47:02;9.50;99.90
6146;DHT22;3104;50.348;7.620;2023-11-21T09:49:28;9.50;99.90
6146;DHT22;3104;50.348;7.620;2023-11-21T09:52:01;9.50;99.90
6146;DHT22;3104;50.348;7.620;2023-11-21T09:54:29;9.50;99.90
6146;DHT22;3104;50.348;7.620;2023-11-21T09:56:57;9.60;99.90
6146;DHT22;3104;50.348;7.620;2023-11-21T09:59:23;9.60;99.90
6146;DHT22;3104;50.348;7.620;2023-11-21T10:01:49;9.40;99.90
6146;DHT22;3104;50.348;7.620;2023-11-21T10:04:15;9.50;99.90
6146;DHT22;3104;50.348;7.620;2023-11-21T10:06:43;9.60;99.90
6146;DHT22;3104;50.348;7.620;2023-11-21T10:09:12;9.60;99.90
6146;DHT22;3104;50.348;7.620;2023-11-21T10:11:42;9.60;99.90
6146;DHT22;3104;50.348;7.620;2023-11-21T10:14:10;9.70;99.90
6146;DHT22;3104;50.348;7.620;2023-11-21T10:16:38;9.70;99.90
6146;DHT22;3104;50.348;7.620;2023-11-21T10:19:04;9.60;99.90
6146;DHT22;3104;50.348;7.620;2023-11-21T10:21:32;9.60;99.90
6146;DHT22;3104;50.348;7.620;2023-11-21T10:23:59;9.50;99.90
6146;DHT22;3104;50.348;7.620;2023-11-21T10:26:26;9.50;99.90
6146;DHT22;3104;50.348;7.620;2023-11-21T10:28:57;9.50;99.90
6146;DHT22;3104;50.348;7.620;2023-11-21T10:31:23;9.60;99.90
6146;DHT22;3104;50.348;7.620;2023-11-21T10:33:51;9.70;99.90
6146;DHT22;3104;50.348;7.620;2023-11-21T10:36:27;9.80;99.90
6146;DHT22;3104;50.348;7.620;2023-11-21T10:38:54;9.90;99.90
6146;DHT22;3104;50.348;7.620;2023-11-21T10:41:20;9.90;99.90
6146;DHT22;3104;50.348;7.620;2023-11-21T10:43:46;10.00;99.90
6146;DHT22;3104;50.348;7.620;2023-11-21T10:46:13;10.10;99.90
6146;DHT22;3104;50.348;7.620;2023-11-21T10:48:44;10.10;99.90
6146;DHT22;3104;50.348;7.620;2023-11-21T10:51:09;10.10;99.90
6146;DHT22;3104;50.348;7.620;2023-11-21T10:53:39;10.20;99.90
6146;DHT22;3104;50.348;7.620;2023-11-21T10:56:08;10.20;99.90
6146;DHT22;3104;50.348;7.620;2023-11-21T10:58:37;10.30;99.90
6146;DHT22;3104;50.348;7.620;2023-11-21T11:01:06;10.40;99.90
6146;DHT22;3104;50.348;7.620;2023-11-21T11:03:32;10.40;99.90
6146;DHT22;3104;50.348;7.620;2023-11-21T11:05:59;10.40;99.90
6146;DHT22;3104;50.348;7.620;2023-11-21T11:08:26;10.30;99.90
6146;DHT22;3104;50.348;7.620;2023-11-21T11:10:52;10.30;99.90
6146;DHT22;3104;50.348;7.620;2023-11-21T11:13:18;10.30;99.90
6146;DHT22;3104;50.348;7.620;2023-11-21T11:15:47;10.30;99.90
6146;DHT22;3104;50.348;7.620;2023-11-21T11:18:14;10.20;99.90
6146;DHT22;3104;50.348;7.620;2023-11-21T11:20:43;10.20;99.90
6146;DHT22;3104;50.348;7.620;2023-11-21T11:28:57;10.40;99.90
6146;DHT22;3104;50.348;7.620;2023-11-21T11:34:15;10.30;99.90
6146;DHT22;3104;50.348;7.620;2023-11-21T11:36:48;10.50;99.90
6146;DHT22;3104;50.348;7.620;2023-11-21T11:39:28;10.30;99.90
6146;DHT22;3104;50.348;7.620;2023-11-21T11:41:56;10.50;99.90
6146;DHT22;3104;50.348;7.620;2023-11-21T11:47:24;10.40;99.90
6146;DHT22;3104;50.348;7.620;2023-11-21T11:50:10;10.50;99.90
6146;DHT22;3104;50.348;7.620;2023-11-21T11:52:44;10.30;99.90
6146;DHT22;3104;50.348;7.620;2023-11-21T11:55:14;10.20;99.90
6146;DHT22;3104;50.348;7.620;2023-11-21T11:57:43;10.20;99.90
6146;DHT22;3104;50.348;7.620;2023-11-21T12:00:17;10.30;99.90
6146;DHT22;3104;50.348;7.620;2023-11-21T12:02:51;10.30;99.90
6146;DHT22;3104;50.348;7.620;2023-11-21T12:05:18;10.50;99.90
6146;DHT22;3104;50.348;7.620;2023-11-21T12:07:51;10.60;99.90
6146;DHT22;3104;50.348;7.620;2023-11-21T12:10:21;10.50;99.90
6146;DHT22;3104;50.348;7.620;2023-11-21T12:15:18;10.60;99.90
6146;DHT22;3104;50.348;7.620;2023-11-21T12:17:45;10.40;99.90
6146;DHT22;3104;50.348;7.620;2023-11-21T12:20:12;10.50;99.90
6146;DHT22;3104;50.348;7.620;2023-11-21T12:22:47;10.60;99.90
6146;DHT22;3104;50.348;7.620;2023-11-21T12:25:14;10.40;99.90
6146;DHT22;3104;50.348;7.620;2023-11-21T12:27:42;10.30;99.90
6146;DHT22;3104;50.348;7.620;2023-11-21T12:30:09;10.20;99.90
6146;DHT22;3104;50.348;7.620;2023-11-21T12:32:39;10.20;99.90
6146;DHT22;3104;50.348;7.620;2023-11-21T12:35:06;10.10;99.90
6146;DHT22;3104;50.348;7.620;2023-11-21T12:37:32;10.10;99.90
6146;DHT22;3104;50.348;7.620;2023-11-21T12:39:58;10.10;99.90
6146;DHT22;3104;50.348;7.620;2023-11-21T12:42:24;10.20;99.90
6146;DHT22;3104;50.348;7.620;2023-11-21T12:47:43;10.00;99.90
6146;DHT22;3104;50.348;7.620;2023-11-21T12:50:09;10.00;99.90
6146;DHT22;3104;50.348;7.620;2023-11-21T12:52:44;10.00;99.90
6146;DHT22;3104;50.348;7.620;2023-11-21T12:55:20;10.00;99.90
6146;DHT22;3104;50.348;7.620;2023-11-21T12:57:53;10.00;99.90
6146;DHT22;3104;50.348;7.620;2023-11-21T13:00:32;10.10;99.90
6146;DHT22;3104;50.348;7.620;2023-11-21T13:02:59;10.10;99.90
6146;DHT22;3104;50.348;7.620;2023-11-21T13:07:57;10.20;99.90
6146;DHT22;3104;50.348;7.620;2023-11-21T13:10:27;10.20;99.90
6146;DHT22;3104;50.348;7.620;2023-11-21T13:12:57;10.20;99.90
6146;DHT22;3104;50.348;7.620;2023-11-21T13:15:24;10.20;99.90
6146;DHT22;3104;50.348;7.620;2023-11-21T13:17:50;10.10;99.90
6146;DHT22;3104;50.348;7.620;2023-11-21T13:20:17;10.00;99.90
6146;DHT22;3104;50.348;7.620;2023-11-21T13:22:53;10.00;99.90
6146;DHT22;3104;50.348;7.620;2023-11-21T13:25:27;10.00;99.90
6146;DHT22;3104;50.348;7.620;2023-11-21T13:27:55;10.10;99.90
6146;DHT22;3104;50.348;7.620;2023-11-21T13:30:22;10.00;99.90
6146;DHT22;3104;50.348;7.620;2023-11-21T13:32:53;10.00;99.90
6146;DHT22;3104;50.348;7.620;2023-11-21T13:35:23;10.10;99.90
6146;DHT22;3104;50.348;7.620;2023-11-21T13:38:08;10.10;99.90
6146;DHT22;3104;50.348;7.620;2023-11-21T13:40:36;10.20;99.90
6146;DHT22;3104;50.348;7.620;2023-11-21T13:43:16;10.20;99.90
6146;DHT22;3104;50.348;7.620;2023-11-21T13:45:43;10.30;99.90
6146;DHT22;3104;50.348;7.620;2023-11-21T13:48:10;10.30;99.90
6146;DHT22;3104;50.348;7.620;2023-11-21T13:50:39;10.20;99.90
6146;DHT22;3104;50.348;7.620;2023-11-21T13:53:11;10.20;99.90
6146;DHT22;3104;50.348;7.620;2023-11-21T13:55:52;10.20;99.90
6146;DHT22;3104;50.348;7.620;2023-11-21T13:58:23;10.20;99.90
6146;DHT22;3104;50.348;7.620;2023-11-21T14:00:57;10.20;99.90
6146;DHT22;3104;50.348;7.620;2023-11-21T14:03:23;10.20;99.90
6146;DHT22;3104;50.348;7.620;2023-11-21T14:05:57;10.20;99.90
6146;DHT22;3104;50.348;7.620;2023-11-21T14:08:23;10.30;99.90
6146;DHT22;3104;50.348;7.620;2023-11-21T14:10:54;10.20;99.90
6146;DHT22;3104;50.348;7.620;2023-11-21T14:13:23;10.20;99.90
6146;DHT22;3104;50.348;7.620;2023-11-21T14:15:50;10.20;99.90
6146;DHT22;3104;50.348;7.620;2023-11-21T14:18:25;10.40;99.90
6146;DHT22;3104;50.348;7.620;2023-11-21T14:21:04;10.20;99.90
6146;DHT22;3104;50.348;7.620;2023-11-21T14:23:31;10.30;99.90
6146;DHT22;3104;50.348;7.620;2023-11-21T14:25:58;10.30;99.90
6146;DHT22;3104;50.348;7.620;2023-11-21T14:28:26;10.20;99.90
6146;DHT22;3104;50.348;7.620;2023-11-21T14:30:52;10.20;99.90
6146;DHT22;3104;50.348;7.620;2023-11-21T14:33:17;10.20;99.90
6146;DHT22;3104;50.348;7.620;2023-11-21T14:35:43;10.20;99.90
6146;DHT22;3104;50.348;7.620;2023-11-21T14:38:09;10.50;99.90
6146;DHT22;3104;50.348;7.620;2023-11-21T14:40:35;10.40;99.90
6146;DHT22;3104;50.348;7.620;2023-11-21T14:43:02;10.30;99.90
6146;DHT22;3104;50.348;7.620;2023-11-21T14:45:31;10.30;99.90
6146;DHT22;3104;50.348;7.620;2023-11-21T14:47:56;10.20;99.90
6146;DHT22;3104;50.348;7.620;2023-11-21T14:50:32;10.10;99.90
6146;DHT22;3104;50.348;7.620;2023-11-21T14:53:06;10.10;99.90
6146;DHT22;3104;50.348;7.620;2023-11-21T14:55:33;10.30;99.90
6146;DHT22;3104;50.348;7.620;2023-11-21T14:58:19;10.20;99.90
6146;DHT22;3104;50.348;7.620;2023-11-21T15:00:57;10.10;99.90
6146;DHT22;3104;50.348;7.620;2023-11-21T15:03:27;10.10;99.90
6146;DHT22;3104;50.348;7.620;2023-11-21T15:06:00;10.10;99.90
6146;DHT22;3104;50.348;7.620;2023-11-21T15:08:43;10.00;99.90
6146;DHT22;3104;50.348;7.620;2023-11-21T15:11:09;9.90;99.90
6146;DHT22;3104;50.348;7.620;2023-11-21T15:13:40;10.10;99.90
6146;DHT22;3104;50.348;7.620;2023-11-21T15:16:07;10.00;99.90
6146;DHT22;3104;50.348;7.620;2023-11-21T15:18:34;10.00;99.90
6146;DHT22;3104;50.348;7.620;2023-11-21T15:21:01;10.00;99.90
6146;DHT22;3104;50.348;7.620;2023-11-21T15:23:29;10.00;99.90
6146;DHT22;3104;50.348;7.620;2023-11-21T15:25:56;10.00;99.90
6146;DHT22;3104;50.348;7.620;2023-11-21T15:28:23;10.10;99.90
6146;DHT22;3104;50.348;7.620;2023-11-21T15:30:50;10.10;99.90
6146;DHT22;3104;50.348;7.620;2023-11-21T15:33:16;10.00;99.90
6146;DHT22;3104;50.348;7.620;2023-11-21T15:35:43;10.00;99.90
6146;DHT22;3104;50.348;7.620;2023-11-21T15:38:08;9.90;99.90
6146;DHT22;3104;50.348;7.620;2023-11-21T15:40:34;10.00;99.90
6146;DHT22;3104;50.348;7.620;2023-11-21T15:43:00;10.00;99.90
6146;DHT22;3104;50.348;7.620;2023-11-21T15:45:28;10.00;99.90
6146;DHT22;3104;50.348;7.620;2023-11-21T15:47:53;10.00;99.90
6146;DHT22;3104;50.348;7.620;2023-11-21T15:50:19;9.90;99.90
6146;DHT22;3104;50.348;7.620;2023-11-21T15:52:45;9.80;99.90
6146;DHT22;3104;50.348;7.620;2023-11-21T15:55:11;9.80;99.90
6146;DHT22;3104;50.348;7.620;2023-11-21T15:57:37;9.90;99.90
6146;DHT22;3104;50.348;7.620;2023-11-21T16:00:02;9.80;99.90
6146;DHT22;3104;50.348;7.620;2023-11-21T16:02:36;9.80;99.90
6146;DHT22;3104;50.348;7.620;2023-11-21T16:05:04;9.70;99.90
6146;DHT22;3104;50.348;7.620;2023-11-21T16:07:30;9.60;99.90
6146;DHT22;3104;50.348;7.620;2023-11-21T16:09:56;9.80;99.90
6146;DHT22;3104;50.348;7.620;2023-11-21T16:12:22;9.80;99.90
6146;DHT22;3104;50.348;7.620;2023-11-21T16:14:48;9.80;99.90
6146;DHT22;3104;50.348;7.620;2023-11-21T16:17:15;9.60;99.90
6146;DHT22;3104;50.348;7.620;2023-11-21T16:19:43;9.70;99.90
6146;DHT22;3104;50.348;7.620;2023-11-21T16:22:09;9.60;99.90
6146;DHT22;3104;50.348;7.620;2023-11-21T16:24:36;9.60;99.90
6146;DHT22;3104;50.348;7.620;2023-11-21T16:27:02;9.50;99.90
6146;DHT22;3104;50.348;7.620;2023-11-21T16:29:30;9.60;99.90
6146;DHT22;3104;50.348;7.620;2023-11-21T16:31:56;9.60;99.90